sensor_id;sensor_type;location;lat;lon;timestamp;temperature;humidity
27258;DHT22;62045;49.986;8.672;2022-10-16T00:03:59;18.80;66.80
27258;DHT22;62045;49.986;8.672;2022-10-16T00:09:00;18.80;66.80
27258;DHT22;62045;49.986;8.672;2022-10-16T00:14:03;18.80;66.80
27258;DHT22;62045;49.986;8.672;2022-10-16T00:19:05;18.80;66.80
27258;DHT22;62045;49.986;8.672;2022-10-16T00:24:08;18.80;66.80
27258;DHT22;62045;49.986;8.672;2022-10-16T00:29:09;18.80;66.80
27258;DHT22;62045;49.986;8.672;2022-10-16T00:34:11;18.80;66.80
27258;DHT22;62045;49.986;8.672;2022-10-16T00:39:12;18.80;67.60
27258;DHT22;62045;49.986;8.672;2022-10-16T00:44:45;18.80;66.80
27258;DHT22;62045;49.986;8.672;2022-10-16T00:49:50;18.80;66.80
27258;DHT22;62045;49.986;8.672;2022-10-16T00:54:52;18.70;66.70
27258;DHT22;62045;49.986;8.672;2022-10-16T00:59:54;18.80;66.80
27258;DHT22;62045;49.986;8.672;2022-10-16T01:04:56;18.70;66.70
27258;DHT22;62045;49.986;8.672;2022-10-16T01:10:07;18.70;66.70
27258;DHT22;62045;49.986;8.672;2022-10-16T01:15:15;18.70;66.70
27258;DHT22;62045;49.986;8.672;2022-10-16T01:20:27;18.70;66.70
27258;DHT22;62045;49.986;8.672;2022-10-16T01:25:39;18.70;66.80
27258;DHT22;62045;49.986;8.672;2022-10-16T01:30:52;18.80;66.80
27258;DHT22;62045;49.986;8.672;2022-10-16T01:36:00;18.80;66.80
27258;DHT22;62045;49.986;8.672;2022-10-16T01:41:08;18.80;66.70
27258;DHT22;62045;49.986;8.672;2022-10-16T01:46:13;18.80;66.70
27258;DHT22;62045;49.986;8.672;2022-10-16T01:51:18;18.90;66.70
27258;DHT22;62045;49.986;8.672;2022-10-16T01:56:19;18.90;66.60
27258;DHT22;62045;49.986;8.672;2022-10-16T02:01:24;18.90;66.60
27258;DHT22;62045;49.986;8.672;2022-10-16T02:06:26;18.90;66.50
27258;DHT22;62045;49.986;8.672;2022-10-16T02:11:27;18.80;66.40
27258;DHT22;62045;49.986;8.672;2022-10-16T02:16:35;18.80;66.40
27258;DHT22;62045;49.986;8.672;2022-10-16T02:21:41;18.80;66.40
27258;DHT22;62045;49.986;8.672;2022-10-16T02:26:45;18.80;66.40
27258;DHT22;62045;49.986;8.672;2022-10-16T02:31:53;18.80;66.40
27258;DHT22;62045;49.986;8.672;2022-10-16T02:36:56;18.80;66.30
27258;DHT22;62045;49.986;8.672;2022-10-16T02:41:58;18.80;66.40
27258;DHT22;62045;49.986;8.672;2022-10-16T02:47:00;18.80;66.30
27258;DHT22;62045;49.986;8.672;2022-10-16T02:52:01;18.80;66.30
27258;DHT22;62045;49.986;8.672;2022-10-16T02:57:02;18.80;66.40
27258;DHT22;62045;49.986;8.672;2022-10-16T03:02:04;18.70;66.30
27258;DHT22;62045;49.986;8.672;2022-10-16T03:07:05;18.80;66.40
27258;DHT22;62045;49.986;8.672;2022-10-16T03:12:07;18.70;66.30
27258;DHT22;62045;49.986;8.672;2022-10-16T03:17:09;18.70;66.30
27258;DHT22;62045;49.986;8.672;2022-10-16T03:22:10;18.70;66.30
27258;DHT22;62045;49.986;8.672;2022-10-16T03:27:11;18.70;66.30
27258;DHT22;62045;49.986;8.672;2022-10-16T03:32:13;18.70;66.30
27258;DHT22;62045;49.986;8.672;2022-10-16T03:37:14;18.70;66.30
27258;DHT22;62045;49.986;8.672;2022-10-16T03:42:14;18.70;66.30
27258;DHT22;62045;49.986;8.672;2022-10-16T03:47:16;18.70;66.30
27258;DHT22;62045;49.986;8.672;2022-10-16T03:52:17;18.70;66.30
27258;DHT22;62045;49.986;8.672;2022-10-16T03:57:18;18.70;66.30
27258;DHT22;62045;49.986;8.672;2022-10-16T04:02:20;18.70;66.30
27258;DHT22;62045;49.986;8.672;2022-10-16T04:07:21;18.70;66.30
27258;DHT22;62045;49.986;8.672;2022-10-16T04:12:22;18.70;66.30
27258;DHT22;62045;49.986;8.672;2022-10-16T04:17:24;18.70;66.40
27258;DHT22;62045;49.986;8.672;2022-10-16T04:22:25;18.70;66.30
27258;DHT22;62045;49.986;8.672;2022-10-16T04:27:26;18.70;66.40
27258;DHT22;62045;49.986;8.672;2022-10-16T04:32:28;18.70;66.30
27258;DHT22;62045;49.986;8.672;2022-10-16T04:37:29;18.70;66.30
27258;DHT22;62045;49.986;8.672;2022-10-16T04:42:30;18.70;66.20
27258;DHT22;62045;49.986;8.672;2022-10-16T04:47:32;18.80;66.20
27258;DHT22;62045;49.986;8.672;2022-10-16T04:52:33;18.80;66.20
27258;DHT22;62045;49.986;8.672;2022-10-16T04:57:33;18.80;66.10
27258;DHT22;62045;49.986;8.672;2022-10-16T05:02:36;18.80;66.40
27258;DHT22;62045;49.986;8.672;2022-10-16T05:07:37;18.90;66.60
27258;DHT22;62045;49.986;8.672;2022-10-16T05:12:38;18.80;66.60
27258;DHT22;62045;49.986;8.672;2022-10-16T05:17:40;18.80;66.60
27258;DHT22;62045;49.986;8.672;2022-10-16T05:22:41;18.80;66.50
27258;DHT22;62045;49.986;8.672;2022-10-16T05:27:41;18.80;66.80
27258;DHT22;62045;49.986;8.672;2022-10-16T05:32:47;18.80;66.50
27258;DHT22;62045;49.986;8.672;2022-10-16T05:37:48;18.80;66.50
27258;DHT22;62045;49.986;8.672;2022-10-16T05:42:49;18.80;66.50
27258;DHT22;62045;49.986;8.672;2022-10-16T05:47:51;18.80;66.50
27258;DHT22;62045;49.986;8.672;2022-10-16T05:52:52;18.80;66.50
27258;DHT22;62045;49.986;8.672;2022-10-16T05:57:54;18.80;66.50
27258;DHT22;62045;49.986;8.672;2022-10-16T06:02:56;18.70;66.40
27258;DHT22;62045;49.986;8.672;2022-10-16T06:07:57;18.70;66.50
27258;DHT22;62045;49.986;8.672;2022-10-16T06:12:58;18.80;66.50
27258;DHT22;62045;49.986;8.672;2022-10-16T06:18:00;18.70;66.50
27258;DHT22;62045;49.986;8.672;2022-10-16T06:23:01;18.70;66.50
27258;DHT22;62045;49.986;8.672;2022-10-16T06:28:02;18.70;66.50
27258;DHT22;62045;49.986;8.672;2022-10-16T06:33:04;18.70;66.50
27258;DHT22;62045;49.986;8.672;2022-10-16T06:38:05;18.70;66.50
27258;DHT22;62045;49.986;8.672;2022-10-16T06:43:06;18.70;66.50
27258;DHT22;62045;49.986;8.672;2022-10-16T06:48:08;18.70;66.50
27258;DHT22;62045;49.986;8.672;2022-10-16T06:53:09;18.70;66.50
27258;DHT22;62045;49.986;8.672;2022-10-16T06:58:10;18.70;66.50
27258;DHT22;62045;49.986;8.672;2022-10-16T07:03:13;18.70;66.50
27258;DHT22;62045;49.986;8.672;2022-10-16T07:08:14;18.70;66.50
27258;DHT22;62045;49.986;8.672;2022-10-16T07:13:16;18.70;66.50
27258;DHT22;62045;49.986;8.672;2022-10-16T07:18:19;18.70;66.50
27258;DHT22;62045;49.986;8.672;2022-10-16T07:23:20;18.70;66.50
27258;DHT22;62045;49.986;8.672;2022-10-16T07:28:21;18.70;66.50
27258;DHT22;62045;49.986;8.672;2022-10-16T07:33:23;18.70;66.50
27258;DHT22;62045;49.986;8.672;2022-10-16T07:38:24;18.80;66.50
27258;DHT22;62045;49.986;8.672;2022-10-16T07:43:25;18.80;66.40
27258;DHT22;62045;49.986;8.672;2022-10-16T07:48:30;18.80;66.40
27258;DHT22;62045;49.986;8.672;2022-10-16T07:53:31;18.80;66.40
27258;DHT22;62045;49.986;8.672;2022-10-16T07:58:33;18.80;66.30
27258;DHT22;62045;49.986;8.672;2022-10-16T08:03:36;18.90;67.30
27258;DHT22;62045;49.986;8.672;2022-10-16T08:08:37;18.90;67.40
27258;DHT22;62045;49.986;8.672;2022-10-16T08:13:38;18.90;67.50
27258;DHT22;62045;49.986;8.672;2022-10-16T08:18:41;18.90;67.60
27258;DHT22;62045;49.986;8.672;2022-10-16T08:23:42;18.90;67.70
27258;DHT22;62045;49.986;8.672;2022-10-16T08:28:46;18.90;67.90
27258;DHT22;62045;49.986;8.672;2022-10-16T08:33:51;18.90;67.90
27258;DHT22;62045;49.986;8.672;2022-10-16T08:38:51;18.90;67.90
27258;DHT22;62045;49.986;8.672;2022-10-16T08:44:07;18.90;67.80
27258;DHT22;62045;49.986;8.672;2022-10-16T08:49:13;18.90;67.80
27258;DHT22;62045;49.986;8.672;2022-10-16T08:54:26;18.90;67.80
27258;DHT22;62045;49.986;8.672;2022-10-16T08:59:28;18.90;67.80
27258;DHT22;62045;49.986;8.672;2022-10-16T09:04:52;18.80;67.70
27258;DHT22;62045;49.986;8.672;2022-10-16T09:10:11;18.80;67.70
27258;DHT22;62045;49.986;8.672;2022-10-16T09:15:23;18.80;67.60
27258;DHT22;62045;49.986;8.672;2022-10-16T09:20:38;18.80;67.60
27258;DHT22;62045;49.986;8.672;2022-10-16T09:25:43;18.80;67.70
27258;DHT22;62045;49.986;8.672;2022-10-16T09:30:44;18.80;67.60
27258;DHT22;62045;49.986;8.672;2022-10-16T09:35:49;18.80;67.60
27258;DHT22;62045;49.986;8.672;2022-10-16T09:40:51;18.80;67.60
27258;DHT22;62045;49.986;8.672;2022-10-16T09:45:57;18.80;67.50
27258;DHT22;62045;49.986;8.672;2022-10-16T09:51:01;18.80;67.60
27258;DHT22;62045;49.986;8.672;2022-10-16T09:56:02;18.80;67.50
27258;DHT22;62045;49.986;8.672;2022-10-16T10:01:03;18.90;67.60
27258;DHT22;62045;49.986;8.672;2022-10-16T10:06:18;18.90;67.50
27258;DHT22;62045;49.986;8.672;2022-10-16T10:11:45;18.90;67.40
27258;DHT22;62045;49.986;8.672;2022-10-16T10:16:47;18.90;67.30
27258;DHT22;62045;49.986;8.672;2022-10-16T10:21:50;19.00;67.20
27258;DHT22;62045;49.986;8.672;2022-10-16T10:26:56;19.00;67.20
27258;DHT22;62045;49.986;8.672;2022-10-16T10:32:08;19.00;67.20
27258;DHT22;62045;49.986;8.672;2022-10-16T10:37:26;19.00;67.10
27258;DHT22;62045;49.986;8.672;2022-10-16T10:42:33;19.00;67.30
27258;DHT22;62045;49.986;8.672;2022-10-16T10:47:43;19.00;68.80
27258;DHT22;62045;49.986;8.672;2022-10-16T10:52:57;19.00;68.80
27258;DHT22;62045;49.986;8.672;2022-10-16T10:58:10;19.10;69.90
27258;DHT22;62045;49.986;8.672;2022-10-16T11:03:33;19.20;71.50
27258;DHT22;62045;49.986;8.672;2022-10-16T11:08:40;19.20;71.30
27258;DHT22;62045;49.986;8.672;2022-10-16T11:13:46;19.20;71.00
27258;DHT22;62045;49.986;8.672;2022-10-16T11:18:55;19.20;70.90
27258;DHT22;62045;49.986;8.672;2022-10-16T11:24:01;19.20;70.80
27258;DHT22;62045;49.986;8.672;2022-10-16T11:29:10;19.20;70.80
27258;DHT22;62045;49.986;8.672;2022-10-16T11:34:22;19.20;71.00
27258;DHT22;62045;49.986;8.672;2022-10-16T11:39:28;19.30;71.50
27258;DHT22;62045;49.986;8.672;2022-10-16T11:44:45;19.30;71.80
27258;DHT22;62045;49.986;8.672;2022-10-16T11:49:51;19.30;72.10
27258;DHT22;62045;49.986;8.672;2022-10-16T11:54:59;19.30;72.30
27258;DHT22;62045;49.986;8.672;2022-10-16T12:00:04;19.30;72.50
27258;DHT22;62045;49.986;8.672;2022-10-16T12:05:21;19.40;72.70
27258;DHT22;62045;49.986;8.672;2022-10-16T12:10:27;19.30;72.80
27258;DHT22;62045;49.986;8.672;2022-10-16T12:15:29;19.40;72.80
27258;DHT22;62045;49.986;8.672;2022-10-16T12:20:31;19.40;72.80
27258;DHT22;62045;49.986;8.672;2022-10-16T12:25:35;19.50;72.90
27258;DHT22;62045;49.986;8.672;2022-10-16T12:30:37;19.40;73.30
27258;DHT22;62045;49.986;8.672;2022-10-16T12:35:43;19.50;73.50
27258;DHT22;62045;49.986;8.672;2022-10-16T12:40:53;19.50;73.60
27258;DHT22;62045;49.986;8.672;2022-10-16T12:46:04;19.60;73.60
27258;DHT22;62045;49.986;8.672;2022-10-16T12:51:23;19.60;73.70
27258;DHT22;62045;49.986;8.672;2022-10-16T12:56:32;19.60;73.90
27258;DHT22;62045;49.986;8.672;2022-10-16T13:01:43;19.70;73.60
27258;DHT22;62045;49.986;8.672;2022-10-16T13:06:53;19.70;73.20
27258;DHT22;62045;49.986;8.672;2022-10-16T13:12:18;19.80;73.20
27258;DHT22;62045;49.986;8.672;2022-10-16T13:17:25;19.80;74.00
27258;DHT22;62045;49.986;8.672;2022-10-16T13:22:33;19.80;74.60
27258;DHT22;62045;49.986;8.672;2022-10-16T13:27:43;19.80;74.70
27258;DHT22;62045;49.986;8.672;2022-10-16T13:32:49;19.80;74.20
27258;DHT22;62045;49.986;8.672;2022-10-16T13:37:51;19.70;73.80
27258;DHT22;62045;49.986;8.672;2022-10-16T13:42:53;19.70;73.50
27258;DHT22;62045;49.986;8.672;2022-10-16T13:48:02;19.70;73.20
27258;DHT22;62045;49.986;8.672;2022-10-16T13:53:04;19.60;72.90
27258;DHT22;62045;49.986;8.672;2022-10-16T13:58:08;19.60;72.70
27258;DHT22;62045;49.986;8.672;2022-10-16T14:03:13;19.60;72.50
27258;DHT22;62045;49.986;8.672;2022-10-16T14:08:15;19.60;72.40
27258;DHT22;62045;49.986;8.672;2022-10-16T14:13:28;19.60;72.30
27258;DHT22;62045;49.986;8.672;2022-10-16T14:18:30;19.60;72.10
27258;DHT22;62045;49.986;8.672;2022-10-16T14:23:39;19.60;72.10
27258;DHT22;62045;49.986;8.672;2022-10-16T14:28:42;19.60;72.10
27258;DHT22;62045;49.986;8.672;2022-10-16T14:33:43;19.60;72.20
27258;DHT22;62045;49.986;8.672;2022-10-16T14:38:49;19.60;72.20
27258;DHT22;62045;49.986;8.672;2022-10-16T14:43:57;19.60;72.00
27258;DHT22;62045;49.986;8.672;2022-10-16T14:49:05;19.60;72.00
27258;DHT22;62045;49.986;8.672;2022-10-16T14:54:12;19.60;71.90
27258;DHT22;62045;49.986;8.672;2022-10-16T14:59:18;19.60;71.70
27258;DHT22;62045;49.986;8.672;2022-10-16T15:04:19;19.70;71.70
27258;DHT22;62045;49.986;8.672;2022-10-16T15:09:20;19.70;71.60
27258;DHT22;62045;49.986;8.672;2022-10-16T15:14:22;19.70;71.50
27258;DHT22;62045;49.986;8.672;2022-10-16T15:19:23;19.70;71.50
27258;DHT22;62045;49.986;8.672;2022-10-16T15:24:24;19.70;71.40
27258;DHT22;62045;49.986;8.672;2022-10-16T15:29:26;19.60;71.40
27258;DHT22;62045;49.986;8.672;2022-10-16T15:34:27;19.70;71.50
27258;DHT22;62045;49.986;8.672;2022-10-16T15:39:27;19.60;71.50
27258;DHT22;62045;49.986;8.672;2022-10-16T15:44:30;19.60;71.50
27258;DHT22;62045;49.986;8.672;2022-10-16T15:49:30;19.60;71.50
27258;DHT22;62045;49.986;8.672;2022-10-16T15:54:31;19.60;71.50
27258;DHT22;62045;49.986;8.672;2022-10-16T15:59:34;19.60;71.50
27258;DHT22;62045;49.986;8.672;2022-10-16T16:04:34;19.60;71.60
27258;DHT22;62045;49.986;8.672;2022-10-16T16:09:35;19.60;71.60
27258;DHT22;62045;49.986;8.672;2022-10-16T16:14:37;19.60;71.50
27258;DHT22;62045;49.986;8.672;2022-10-16T16:19:38;19.60;71.50
27258;DHT22;62045;49.986;8.672;2022-10-16T16:24:39;19.60;71.60
27258;DHT22;62045;49.986;8.672;2022-10-16T16:29:41;19.60;71.60
27258;DHT22;62045;49.986;8.672;2022-10-16T16:34:42;19.60;71.60
27258;DHT22;62045;49.986;8.672;2022-10-16T16:39:43;19.60;71.80
27258;DHT22;62045;49.986;8.672;2022-10-16T16:44:47;19.60;71.80
27258;DHT22;62045;49.986;8.672;2022-10-16T16:49:48;19.60;72.00
27258;DHT22;62045;49.986;8.672;2022-10-16T16:54:49;19.60;72.00
27258;DHT22;62045;49.986;8.672;2022-10-16T16:59:51;19.60;72.00
27258;DHT22;62045;49.986;8.672;2022-10-16T17:04:52;19.60;72.00
27258;DHT22;62045;49.986;8.672;2022-10-16T17:09:53;19.60;71.90
27258;DHT22;62045;49.986;8.672;2022-10-16T17:14:55;19.60;71.70
27258;DHT22;62045;49.986;8.672;2022-10-16T17:19:55;19.70;71.80
27258;DHT22;62045;49.986;8.672;2022-10-16T17:24:56;19.70;71.90
27258;DHT22;62045;49.986;8.672;2022-10-16T17:29:58;19.70;72.50
27258;DHT22;62045;49.986;8.672;2022-10-16T17:34:59;19.70;72.50
27258;DHT22;62045;49.986;8.672;2022-10-16T17:40:00;19.80;72.20
27258;DHT22;62045;49.986;8.672;2022-10-16T17:45:03;19.80;72.00
27258;DHT22;62045;49.986;8.672;2022-10-16T17:50:04;19.80;72.10
27258;DHT22;62045;49.986;8.672;2022-10-16T17:55:06;19.80;72.00
27258;DHT22;62045;49.986;8.672;2022-10-16T18:00:09;19.70;71.90
27258;DHT22;62045;49.986;8.672;2022-10-16T18:05:10;19.70;71.90
27258;DHT22;62045;49.986;8.672;2022-10-16T18:10:11;19.70;71.80
27258;DHT22;62045;49.986;8.672;2022-10-16T18:15:13;19.70;71.80
27258;DHT22;62045;49.986;8.672;2022-10-16T18:20:14;19.70;71.80
27258;DHT22;62045;49.986;8.672;2022-10-16T18:25:15;19.60;71.70
27258;DHT22;62045;49.986;8.672;2022-10-16T18:30:17;19.60;71.60
27258;DHT22;62045;49.986;8.672;2022-10-16T18:35:18;19.60;71.50
27258;DHT22;62045;49.986;8.672;2022-10-16T18:40:20;19.60;71.40
27258;DHT22;62045;49.986;8.672;2022-10-16T18:45:22;19.60;71.30
27258;DHT22;62045;49.986;8.672;2022-10-16T18:50:23;19.60;71.30
27258;DHT22;62045;49.986;8.672;2022-10-16T18:55:24;19.60;71.20
27258;DHT22;62045;49.986;8.672;2022-10-16T19:00:26;19.60;71.20
27258;DHT22;62045;49.986;8.672;2022-10-16T19:05:27;19.60;71.20
27258;DHT22;62045;49.986;8.672;2022-10-16T19:10:28;19.60;71.10
27258;DHT22;62045;49.986;8.672;2022-10-16T19:15:30;19.60;71.10
27258;DHT22;62045;49.986;8.672;2022-10-16T19:20:31;19.60;71.00
27258;DHT22;62045;49.986;8.672;2022-10-16T19:25:35;19.60;71.00
27258;DHT22;62045;49.986;8.672;2022-10-16T19:30:39;19.60;71.70
27258;DHT22;62045;49.986;8.672;2022-10-16T19:35:40;19.50;70.80
27258;DHT22;62045;49.986;8.672;2022-10-16T19:40:41;19.60;70.80
27258;DHT22;62045;49.986;8.672;2022-10-16T19:45:43;19.60;70.70
27258;DHT22;62045;49.986;8.672;2022-10-16T19:50:44;19.60;70.60
27258;DHT22;62045;49.986;8.672;2022-10-16T19:55:45;19.60;70.50
27258;DHT22;62045;49.986;8.672;2022-10-16T20:00:47;19.60;70.40
27258;DHT22;62045;49.986;8.672;2022-10-16T20:05:52;19.60;70.40
27258;DHT22;62045;49.986;8.672;2022-10-16T20:10:54;19.70;70.30
27258;DHT22;62045;49.986;8.672;2022-10-16T20:15:56;19.70;70.30
27258;DHT22;62045;49.986;8.672;2022-10-16T20:20:57;19.60;70.20
27258;DHT22;62045;49.986;8.672;2022-10-16T20:26:00;19.60;70.20
27258;DHT22;62045;49.986;8.672;2022-10-16T20:31:06;19.60;70.20
27258;DHT22;62045;49.986;8.672;2022-10-16T20:36:10;19.60;70.20
27258;DHT22;62045;49.986;8.672;2022-10-16T20:41:11;19.60;70.10
27258;DHT22;62045;49.986;8.672;2022-10-16T20:46:15;19.60;70.10
27258;DHT22;62045;49.986;8.672;2022-10-16T20:51:18;19.60;70.10
27258;DHT22;62045;49.986;8.672;2022-10-16T20:56:19;19.50;70.00
27258;DHT22;62045;49.986;8.672;2022-10-16T21:01:22;19.60;70.00
27258;DHT22;62045;49.986;8.672;2022-10-16T21:06:23;19.50;69.90
27258;DHT22;62045;49.986;8.672;2022-10-16T21:11:25;19.50;69.90
27258;DHT22;62045;49.986;8.672;2022-10-16T21:16:29;19.60;69.90
27258;DHT22;62045;49.986;8.672;2022-10-16T21:21:31;19.60;70.00
27258;DHT22;62045;49.986;8.672;2022-10-16T21:26:32;19.50;69.90
27258;DHT22;62045;49.986;8.672;2022-10-16T21:31:34;19.50;69.90
27258;DHT22;62045;49.986;8.672;2022-10-16T21:36:37;19.50;69.90
27258;DHT22;62045;49.986;8.672;2022-10-16T21:41:40;19.50;69.90
27258;DHT22;62045;49.986;8.672;2022-10-16T21:46:43;19.50;69.80
27258;DHT22;62045;49.986;8.672;2022-10-16T21:51:45;19.50;69.80
27258;DHT22;62045;49.986;8.672;2022-10-16T21:56:46;19.50;69.80
27258;DHT22;62045;49.986;8.672;2022-10-16T22:01:52;19.40;69.70
27258;DHT22;62045;49.986;8.672;2022-10-16T22:06:53;19.50;69.80
27258;DHT22;62045;49.986;8.672;2022-10-16T22:11:53;19.50;69.70
27258;DHT22;62045;49.986;8.672;2022-10-16T22:16:56;19.50;69.60
27258;DHT22;62045;49.986;8.672;2022-10-16T22:21:56;19.50;69.70
27258;DHT22;62045;49.986;8.672;2022-10-16T22:26:57;19.60;69.60
27258;DHT22;62045;49.986;8.672;2022-10-16T22:31:59;19.60;69.60
27258;DHT22;62045;49.986;8.672;2022-10-16T22:37:00;19.50;69.40
27258;DHT22;62045;49.986;8.672;2022-10-16T22:42:01;19.60;69.50
27258;DHT22;62045;49.986;8.672;2022-10-16T22:47:04;19.60;69.40
27258;DHT22;62045;49.986;8.672;2022-10-16T22:52:04;19.50;69.20
27258;DHT22;62045;49.986;8.672;2022-10-16T22:57:05;19.50;69.20
27258;DHT22;62045;49.986;8.672;2022-10-16T23:02:07;19.50;70.00
27258;DHT22;62045;49.986;8.672;2022-10-16T23:07:08;19.60;69.30
27258;DHT22;62045;49.986;8.672;2022-10-16T23:12:09;19.50;70.00
27258;DHT22;62045;49.986;8.672;2022-10-16T23:17:11;19.50;69.10
27258;DHT22;62045;49.986;8.672;2022-10-16T23:22:12;19.50;69.10
27258;DHT22;62045;49.986;8.672;2022-10-16T23:27:13;19.50;69.20
27258;DHT22;62045;49.986;8.672;2022-10-16T23:32:15;19.50;69.10
27258;DHT22;62045;49.986;8.672;2022-10-16T23:37:16;19.50;69.10
27258;DHT22;62045;49.986;8.672;2022-10-16T23:42:17;19.50;69.10
27258;DHT22;62045;49.986;8.672;2022-10-16T23:47:19;19.50;69.10
27258;DHT22;62045;49.986;8.672;2022-10-16T23:52:20;19.50;69.10
27258;DHT22;62045;49.986;8.672;2022-10-16T23:57:21;19.40;69.00
